createdAt,value
2018-01-01T00:01:48.468Z,2.00
2018-01-01T00:04:15.316Z,2.00
2018-01-01T00:06:42.203Z,2.00
2018-01-01T00:09:09.109Z,2.00
2018-01-01T00:11:35.937Z,2.00
2018-01-01T00:14:02.828Z,2.10
2018-01-01T00:16:29.677Z,2.10
2018-01-01T00:18:56.579Z,2.10
2018-01-01T00:21:23.455Z,2.00
2018-01-01T00:23:50.346Z,2.10
2018-01-01T00:26:17.996Z,2.20
2018-01-01T00:28:45.593Z,2.30
2018-01-01T00:31:12.417Z,2.20
2018-01-01T00:33:39.342Z,2.20
2018-01-01T00:36:07.018Z,2.20
2018-01-01T00:38:34.637Z,2.20
2018-01-01T00:41:01.515Z,2.20
2018-01-01T00:43:28.382Z,2.20
2018-01-01T00:45:55.227Z,2.20
2018-01-01T00:48:22.110Z,2.10
2018-01-01T00:50:49.007Z,2.20
2018-01-01T00:53:15.862Z,2.20
2018-01-01T00:55:42.726Z,2.20
2018-01-01T00:58:09.553Z,2.20
2018-01-01T01:00:36.448Z,2.20
2018-01-01T01:03:04.082Z,2.40
2018-01-01T01:05:30.965Z,2.40
2018-01-01T01:07:58.542Z,2.40
2018-01-01T01:10:25.401Z,2.30
2018-01-01T01:12:52.282Z,2.40
2018-01-01T01:15:19.934Z,2.30
2018-01-01T01:17:46.781Z,2.30
2018-01-01T01:20:13.645Z,2.30
2018-01-01T01:22:51.706Z,2.30
2018-01-01T01:25:39.100Z,2.30
2018-01-01T01:28:09.502Z,2.20
2018-01-01T01:37:04.083Z,2.60
2018-01-01T01:39:39.583Z,2.60
2018-01-01T01:45:28.933Z,2.30
2018-01-01T01:48:23.031Z,2.30
2018-01-01T01:50:54.579Z,2.50
2018-01-01T01:53:21.514Z,2.50
2018-01-01T01:55:48.382Z,2.30
2018-01-01T02:06:08.117Z,2.30
2018-01-01T02:08:50.780Z,2.30
2018-01-01T02:14:43.145Z,2.20
2018-01-01T02:20:13.033Z,2.30
2018-01-01T02:22:39.970Z,2.40
2018-01-01T02:25:32.219Z,2.40
2018-01-01T02:28:10.811Z,2.50
2018-01-01T02:30:39.479Z,2.60
2018-01-01T02:33:34.992Z,2.60
2018-01-01T02:42:24.151Z,2.50
2018-01-01T02:45:01.551Z,2.60
2018-01-01T02:47:43.034Z,2.60
2018-01-01T03:05:27.131Z,2.60
2018-01-01T03:08:25.004Z,2.70
2018-01-01T03:10:56.581Z,2.70
2018-01-01T03:13:23.450Z,2.70
2018-01-01T03:22:32.027Z,2.50
2018-01-01T03:25:15.730Z,2.40
2018-01-01T03:27:43.358Z,2.40
2018-01-01T03:30:10.222Z,2.40
2018-01-01T03:32:37.086Z,2.40
2018-01-01T03:35:03.985Z,2.30
2018-01-01T03:37:31.109Z,2.20
2018-01-01T03:40:07.368Z,2.10
2018-01-01T03:49:16.328Z,2.10
2018-01-01T03:51:43.225Z,2.10
2018-01-01T03:54:25.559Z,2.10
2018-01-01T04:00:09.427Z,2.00
2018-01-01T04:08:41.571Z,2.20
2018-01-01T04:11:21.500Z,2.00
2018-01-01T04:13:48.390Z,2.00
2018-01-01T04:22:23.698Z,2.70
2018-01-01T04:24:56.878Z,2.80
2018-01-01T04:27:25.410Z,2.70
2018-01-01T04:32:59.535Z,3.00
2018-01-01T04:35:58.420Z,3.10
2018-01-01T04:38:37.451Z,3.20
2018-01-01T04:41:26.669Z,3.30
2018-01-01T05:08:27.127Z,3.50
2018-01-01T05:11:12.696Z,3.60
2018-01-01T06:23:22.064Z,3.50
2018-01-01T06:25:49.647Z,2.70
2018-01-01T06:28:17.239Z,2.70
2018-01-01T06:30:44.122Z,2.70
2018-01-01T06:33:10.973Z,2.80
2018-01-01T06:35:37.836Z,2.80
2018-01-01T06:38:04.716Z,2.70
2018-01-01T06:40:31.574Z,2.70
2018-01-01T06:42:58.426Z,2.70
2018-01-01T06:45:26.045Z,2.70
2018-01-01T06:47:52.963Z,2.70
2018-01-01T06:50:19.824Z,2.70
2018-01-01T06:52:46.719Z,2.70
2018-01-01T06:55:13.562Z,2.70
2018-01-01T06:57:40.400Z,2.80
2018-01-01T07:00:07.281Z,2.70
2018-01-01T07:02:35.010Z,2.90
2018-01-01T07:05:01.889Z,2.90
2018-01-01T07:07:29.454Z,2.90
2018-01-01T07:09:56.427Z,2.90
2018-01-01T07:12:23.282Z,3.00
2018-01-01T07:14:50.175Z,3.00
2018-01-01T07:17:17.060Z,3.10
2018-01-01T07:19:43.930Z,3.00
2018-01-01T07:22:11.584Z,3.20
2018-01-01T07:24:38.426Z,3.10
2018-01-01T07:27:05.290Z,3.20
2018-01-01T07:29:32.194Z,3.20
2018-01-01T07:31:59.041Z,3.30
2018-01-01T07:34:25.922Z,3.40
2018-01-01T07:36:53.482Z,3.40
2018-01-01T07:39:21.112Z,3.50
2018-01-01T07:41:47.967Z,3.50
2018-01-01T07:44:15.694Z,3.50
2018-01-01T07:46:42.565Z,3.50
2018-01-01T07:49:09.434Z,3.50
2018-01-01T07:51:37.073Z,3.50
2018-01-01T07:54:03.919Z,3.50
2018-01-01T07:56:30.755Z,3.50
2018-01-01T07:58:57.602Z,3.60
2018-01-01T08:01:24.514Z,3.70
2018-01-01T08:03:51.382Z,3.70
2018-01-01T08:06:18.244Z,3.80
2018-01-01T08:08:45.108Z,3.90
2018-01-01T08:11:12.006Z,4.00
2018-01-01T08:13:38.930Z,4.00
2018-01-01T08:16:05.800Z,3.90
2018-01-01T08:18:33.273Z,4.00
2018-01-01T08:21:00.178Z,4.10
2018-01-01T08:23:27.006Z,4.10
2018-01-01T08:25:54.601Z,4.20
2018-01-01T08:28:21.520Z,4.20
2018-01-01T08:30:48.725Z,4.20
2018-01-01T08:33:15.694Z,4.20
2018-01-01T08:35:42.614Z,4.30
2018-01-01T08:38:09.477Z,4.40
2018-01-01T08:40:36.349Z,4.40
2018-01-01T08:43:03.224Z,4.40
2018-01-01T08:45:30.038Z,4.50
2018-01-01T08:47:56.942Z,4.50
2018-01-01T08:50:23.822Z,4.60
2018-01-01T08:52:50.722Z,4.70
2018-01-01T08:55:17.592Z,4.70
2018-01-01T08:57:44.433Z,4.80
2018-01-01T09:00:11.268Z,4.70
2018-01-01T09:02:38.154Z,4.80
2018-01-01T09:05:04.987Z,4.80
2018-01-01T09:07:31.921Z,4.70
2018-01-01T09:09:58.778Z,4.70
2018-01-01T09:12:25.674Z,4.70
2018-01-01T09:14:52.521Z,4.70
2018-01-01T09:17:19.363Z,4.70
2018-01-01T09:19:46.990Z,4.80
2018-01-01T09:22:13.825Z,4.80
2018-01-01T09:24:40.661Z,4.90
2018-01-01T09:27:07.678Z,5.00
2018-01-01T09:29:34.538Z,5.00
2018-01-01T09:32:01.386Z,5.00
2018-01-01T09:34:28.250Z,5.00
2018-01-01T09:36:55.138Z,5.00
2018-01-01T09:39:22.026Z,5.00
2018-01-01T09:41:48.898Z,5.00
2018-01-01T09:44:15.762Z,5.10
2018-01-01T09:46:43.347Z,5.20
2018-01-01T09:49:10.208Z,5.20
2018-01-01T09:51:37.112Z,5.30
2018-01-01T09:54:04.714Z,5.40
2018-01-01T09:56:31.588Z,5.40
2018-01-01T09:58:59.181Z,5.50
2018-01-01T10:01:26.842Z,5.50
2018-01-01T10:03:53.842Z,5.50
2018-01-01T10:06:20.718Z,5.50
2018-01-01T10:08:47.567Z,5.50
2018-01-01T10:11:15.205Z,5.80
2018-01-01T10:13:42.797Z,5.80
2018-01-01T10:16:09.652Z,5.80
2018-01-01T10:18:36.486Z,5.80
2018-01-01T10:21:03.382Z,5.80
2018-01-01T10:23:30.255Z,5.80
2018-01-01T10:25:57.850Z,5.80
2018-01-01T10:28:24.709Z,5.70
2018-01-01T10:30:51.874Z,5.80
2018-01-01T10:33:19.497Z,5.80
2018-01-01T10:35:46.398Z,5.80
2018-01-01T10:38:14.009Z,5.90
2018-01-01T10:40:40.898Z,5.90
2018-01-01T10:43:07.799Z,6.00
2018-01-01T10:45:34.715Z,6.10
2018-01-01T10:48:01.697Z,6.30
2018-01-01T10:50:28.566Z,6.40
2018-01-01T10:52:55.405Z,6.50
2018-01-01T10:55:22.294Z,6.50
2018-01-01T10:57:49.339Z,6.60
2018-01-01T11:00:16.932Z,6.70
2018-01-01T11:02:43.782Z,6.70
2018-01-01T11:05:10.665Z,6.80
2018-01-01T11:07:37.493Z,6.90
2018-01-01T11:10:04.373Z,6.90
2018-01-01T11:12:31.826Z,7.00
2018-01-01T11:14:59.090Z,7.10
2018-01-01T11:17:26.877Z,7.20
2018-01-01T11:19:53.850Z,7.20
2018-01-01T11:22:20.751Z,7.30
2018-01-01T11:24:47.657Z,7.30
2018-01-01T11:27:14.526Z,7.30
2018-01-01T11:29:41.398Z,7.40
2018-01-01T11:32:08.313Z,7.50
2018-01-01T11:34:35.182Z,7.50
2018-01-01T11:37:02.066Z,7.50
2018-01-01T11:39:29.718Z,7.60
2018-01-01T11:41:56.570Z,7.60
2018-01-01T11:44:23.442Z,7.70
2018-01-01T11:46:51.046Z,7.70
2018-01-01T11:49:18.010Z,7.70
2018-01-01T11:51:44.874Z,7.70
2018-01-01T11:54:11.817Z,7.70
2018-01-01T11:56:39.462Z,7.70
2018-01-01T11:59:06.307Z,7.70
2018-01-01T12:01:33.142Z,7.60
2018-01-01T12:04:00.027Z,7.60
2018-01-01T12:06:27.618Z,7.70
2018-01-01T12:08:54.546Z,7.70
2018-01-01T12:11:21.441Z,7.70
2018-01-01T12:13:48.290Z,7.60
2018-01-01T12:16:15.130Z,7.50
2018-01-01T12:18:42.026Z,7.50
2018-01-01T12:21:08.861Z,7.40
2018-01-01T12:23:35.722Z,7.40
2018-01-01T12:26:02.582Z,7.40
2018-01-01T12:28:29.465Z,7.30
2018-01-01T12:30:56.490Z,7.30
2018-01-01T12:33:24.097Z,7.30
2018-01-01T12:35:51.665Z,7.20
2018-01-01T12:38:18.533Z,7.20
2018-01-01T12:40:45.974Z,7.20
2018-01-01T12:43:12.836Z,7.20
2018-01-01T12:45:39.678Z,7.20
2018-01-01T12:48:06.586Z,7.30
2018-01-01T12:50:33.456Z,7.30
2018-01-01T12:53:00.322Z,7.30
2018-01-01T12:55:27.345Z,7.30
2018-01-01T12:57:55.178Z,7.30
2018-01-01T13:00:22.134Z,7.30
2018-01-01T13:02:48.990Z,7.30
2018-01-01T13:05:16.078Z,7.30
2018-01-01T13:07:43.710Z,7.40
2018-01-01T13:10:11.578Z,7.50
2018-01-01T13:12:38.458Z,7.50
2018-01-01T13:15:05.373Z,7.50
2018-01-01T13:17:32.274Z,7.50
2018-01-01T13:19:59.122Z,7.50
2018-01-01T13:22:25.986Z,7.40
2018-01-01T13:24:52.886Z,7.40
2018-01-01T13:27:20.125Z,7.40
2018-01-01T13:29:47.094Z,7.40
2018-01-01T13:32:14.130Z,7.40
2018-01-01T13:34:41.302Z,7.40
2018-01-01T13:37:08.366Z,7.40
2018-01-01T13:39:35.379Z,7.40
2018-01-01T13:42:02.407Z,7.30
2018-01-01T13:44:30.070Z,7.40
2018-01-01T13:46:57.670Z,7.30
2018-01-01T13:49:24.575Z,7.30
2018-01-01T13:51:51.426Z,7.40
2018-01-01T13:54:19.098Z,7.30
2018-01-01T13:56:45.974Z,7.40
2018-01-01T13:59:12.810Z,7.40
2018-01-01T14:01:39.703Z,7.40
2018-01-01T14:04:07.546Z,7.30
2018-01-01T14:06:35.246Z,7.30
2018-01-01T14:09:03.104Z,7.30
2018-01-01T14:11:30.011Z,7.30
2018-01-01T14:13:56.902Z,7.20
2018-01-01T14:16:24.630Z,7.20
2018-01-01T14:18:51.627Z,7.10
2018-01-01T14:21:18.586Z,7.10
2018-01-01T14:23:45.522Z,7.10
2018-01-01T14:26:13.408Z,7.10
2018-01-01T14:28:41.226Z,7.00
2018-01-01T14:31:08.139Z,7.00
2018-01-01T14:33:34.996Z,7.00
2018-01-01T14:36:01.887Z,7.00
2018-01-01T14:38:28.970Z,6.90
2018-01-01T14:40:56.134Z,6.90
2018-01-01T14:43:23.026Z,7.00
2018-01-01T14:45:49.942Z,6.90
2018-01-01T14:48:18.939Z,6.90
2018-01-01T14:50:46.671Z,6.80
2018-01-01T14:53:13.662Z,6.70
2018-01-01T14:55:41.335Z,6.70
2018-01-01T14:58:08.317Z,6.70
2018-01-01T15:00:35.275Z,6.70
2018-01-01T15:03:02.652Z,6.60
2018-01-01T15:05:31.481Z,6.60
2018-01-01T15:07:59.061Z,6.60
2018-01-01T15:10:26.398Z,6.60
2018-01-01T15:12:53.512Z,6.60
2018-01-01T15:15:21.491Z,6.60
2018-01-01T15:17:48.658Z,6.50
2018-01-01T15:20:16.884Z,6.60
2018-01-01T15:22:44.082Z,6.60
2018-01-01T15:25:12.049Z,6.50
2018-01-01T15:27:39.148Z,6.50
2018-01-01T15:30:06.166Z,6.50
2018-01-01T15:32:33.432Z,6.40
2018-01-01T15:35:00.423Z,6.40
2018-01-01T15:37:28.298Z,6.30
2018-01-01T15:39:56.127Z,6.40
2018-01-01T15:42:23.117Z,6.30
2018-01-01T15:44:50.826Z,6.30
2018-01-01T15:47:17.686Z,6.30
2018-01-01T15:49:44.583Z,6.30
2018-01-01T15:52:11.627Z,6.20
2018-01-01T15:54:38.574Z,6.10
2018-01-01T15:57:05.453Z,6.10
2018-01-01T15:59:32.302Z,6.10
2018-01-01T16:01:59.195Z,6.00
2018-01-01T16:04:26.054Z,6.00
2018-01-01T16:06:53.254Z,6.10
2018-01-01T16:09:20.419Z,6.00
2018-01-01T16:11:47.369Z,6.00
2018-01-01T16:14:15.572Z,6.10
2018-01-01T16:16:42.438Z,6.10
2018-01-01T16:19:09.778Z,6.10
2018-01-01T16:21:37.614Z,6.10
2018-01-01T16:24:04.731Z,6.10
2018-01-01T16:26:32.479Z,6.00
2018-01-01T16:28:59.358Z,6.10
2018-01-01T16:31:26.951Z,6.00
2018-01-01T16:33:54.201Z,6.00
2018-01-01T16:36:21.194Z,5.90
2018-01-01T16:38:48.462Z,5.80
2018-01-01T16:41:16.234Z,5.70
2018-01-01T16:43:43.887Z,5.70
2018-01-01T16:46:10.919Z,5.70
2018-01-01T16:48:37.868Z,5.70
2018-01-01T16:51:04.733Z,5.80
2018-01-01T16:53:32.572Z,5.80
2018-01-01T16:55:59.419Z,5.70
2018-01-01T16:58:26.282Z,5.80
2018-01-01T17:00:53.150Z,5.80
2018-01-01T17:03:20.303Z,5.70
2018-01-01T17:05:47.194Z,5.70
2018-01-01T17:08:14.090Z,5.70
2018-01-01T17:10:41.115Z,5.60
2018-01-01T17:13:08.207Z,5.60
2018-01-01T17:15:35.131Z,5.50
2018-01-01T17:18:02.050Z,5.50
2018-01-01T17:20:29.638Z,5.60
2018-01-01T17:22:56.537Z,5.60
2018-01-01T17:25:23.409Z,5.60
2018-01-01T17:27:50.245Z,5.50
2018-01-01T17:30:17.871Z,5.50
2018-01-01T17:32:44.774Z,5.50
2018-01-01T17:35:11.707Z,5.50
2018-01-01T17:37:39.108Z,5.50
2018-01-01T17:40:06.186Z,5.50
2018-01-01T17:42:33.093Z,5.50
2018-01-01T17:45:00.017Z,5.50
2018-01-01T17:47:27.822Z,5.50
2018-01-01T17:49:54.722Z,5.40
2018-01-01T17:52:21.606Z,5.40
2018-01-01T17:54:48.506Z,5.30
2018-01-01T17:57:15.865Z,5.30
2018-01-01T17:59:43.682Z,5.40
2018-01-01T18:02:11.457Z,5.40
2018-01-01T18:04:39.214Z,5.40
2018-01-01T18:07:06.073Z,5.40
2018-01-01T18:09:32.918Z,5.40
2018-01-01T18:11:59.807Z,5.50
2018-01-01T18:14:26.674Z,5.40
2018-01-01T18:16:53.510Z,5.50
2018-01-01T18:19:20.378Z,5.40
2018-01-01T18:21:47.258Z,5.40
2018-01-01T18:24:14.165Z,5.50
2018-01-01T18:26:41.773Z,5.50
2018-01-01T18:29:08.623Z,5.50
2018-01-01T18:31:35.522Z,5.50
2018-01-01T18:34:02.406Z,5.40
2018-01-01T18:36:29.273Z,5.40
2018-01-01T18:38:56.195Z,5.40
2018-01-01T18:41:23.031Z,5.40
2018-01-01T18:43:49.918Z,5.40
2018-01-01T18:46:16.767Z,5.40
2018-01-01T18:48:44.390Z,5.50
2018-01-01T18:51:11.526Z,5.50
2018-01-01T18:53:38.417Z,5.60
2018-01-01T18:56:06.608Z,5.50
2018-01-01T18:58:33.478Z,5.50
2018-01-01T19:01:00.341Z,5.50
2018-01-01T19:03:27.254Z,5.40
2018-01-01T19:05:54.201Z,5.40
2018-01-01T19:08:22.060Z,5.30
2018-01-01T19:10:49.809Z,5.30
2018-01-01T19:13:17.558Z,5.30
2018-01-01T19:15:44.467Z,5.30
2018-01-01T19:18:11.310Z,5.40
2018-01-01T19:20:38.212Z,5.40
2018-01-01T19:23:05.622Z,5.40
2018-01-01T19:25:32.605Z,5.40
2018-01-01T19:28:00.231Z,5.40
2018-01-01T19:30:27.212Z,5.40
2018-01-01T19:32:54.167Z,5.40
2018-01-01T19:35:21.815Z,5.50
2018-01-01T19:37:51.038Z,5.60
2018-01-01T19:40:18.613Z,5.60
2018-01-01T19:42:45.554Z,5.60
2018-01-01T19:45:13.178Z,5.70
2018-01-01T19:47:40.822Z,5.70
2018-01-01T19:50:07.693Z,5.70
2018-01-01T19:52:35.326Z,5.60
2018-01-01T19:55:02.215Z,5.60
2018-01-01T19:57:30.119Z,5.60
2018-01-01T19:59:57.152Z,5.60
2018-01-01T20:02:24.202Z,5.60
2018-01-01T21:20:47.865Z,5.60
2018-01-01T21:23:15.230Z,5.40
2018-01-01T21:25:42.139Z,5.30
2018-01-01T21:28:08.961Z,5.30
2018-01-01T21:30:36.756Z,5.20
2018-01-01T21:33:04.393Z,5.40
2018-01-01T21:35:31.213Z,5.40
2018-01-01T21:37:58.050Z,5.40
2018-01-01T21:40:24.972Z,5.30
2018-01-01T21:42:51.838Z,5.30
2018-01-01T21:45:18.710Z,5.30
2018-01-01T21:47:46.305Z,5.40
2018-01-01T21:50:13.219Z,5.40
2018-01-01T21:52:40.071Z,5.30
2018-01-01T21:55:07.698Z,5.40
2018-01-01T21:57:34.619Z,5.40
2018-01-01T22:00:01.467Z,5.40
2018-01-01T22:02:28.356Z,5.50
2018-01-01T22:04:55.277Z,5.50
2018-01-01T22:07:22.149Z,5.50
2018-01-01T22:09:49.761Z,5.30
2018-01-01T22:12:16.622Z,5.30
2018-01-01T22:14:43.506Z,5.30
2018-01-01T22:17:11.103Z,5.40
2018-01-01T22:19:37.990Z,5.40
2018-01-01T22:22:04.833Z,5.40
2018-01-01T22:24:31.734Z,5.40
2018-01-01T22:26:58.551Z,5.40
2018-01-01T22:29:25.421Z,5.40
2018-01-01T22:31:52.266Z,5.40
2018-01-01T22:34:19.147Z,5.40
2018-01-01T22:36:46.754Z,5.40
2018-01-01T22:39:13.600Z,5.40
2018-01-01T22:41:40.466Z,5.40
2018-01-01T22:44:07.398Z,5.40
2018-01-01T22:46:34.257Z,5.40
2018-01-01T22:49:01.197Z,5.40
2018-01-01T22:51:28.130Z,5.40
2018-01-01T22:53:54.984Z,5.40
2018-01-01T22:56:21.831Z,5.40
2018-01-01T22:58:48.694Z,5.40
2018-01-01T23:01:15.554Z,5.40
2018-01-01T23:03:42.410Z,5.40
2018-01-01T23:06:10.010Z,5.40
2018-01-01T23:08:36.862Z,5.30
2018-01-01T23:11:03.717Z,5.30
2018-01-01T23:13:30.581Z,5.20
2018-01-01T23:15:58.199Z,5.10
2018-01-01T23:18:25.165Z,5.10
2018-01-01T23:20:53.017Z,5.00
2018-01-01T23:23:19.870Z,5.00
2018-01-01T23:25:46.749Z,4.90
2018-01-01T23:28:14.379Z,4.80
2018-01-01T23:30:41.258Z,4.80
2018-01-01T23:33:08.902Z,4.70
2018-01-01T23:35:35.775Z,4.70
2018-01-01T23:38:02.639Z,4.80
2018-01-01T23:40:29.482Z,4.70
2018-01-01T23:42:56.362Z,4.70
2018-01-01T23:45:23.198Z,4.60
2018-01-01T23:47:50.042Z,4.50
2018-01-01T23:50:16.902Z,4.50
2018-01-01T23:52:43.766Z,4.40
2018-01-01T23:55:11.378Z,4.30
2018-01-01T23:57:38.226Z,4.20
